Terminal Aerodrome Forecast
Issued by NWS

Home | Current Version | Previous Version | Text Only | Print | Product List | Glossary Off
Versions: 1 2 3 4 5 6 7 8 9 10 11 12 13 14

000
FTUS43 KMPX 242322
TAFAXN
TAF
KAXN 242322Z 2500/2524 34011G17KT P6SM SCT150
     FM250200 35009KT P6SM BKN100
     FM250800 03005KT P6SM OVC070
     FM251200 03008KT P6SM FEW020 OVC050
     FM251800 36012KT P6SM OVC040=

USA.gov is the U.S. government's official web portal to all federal, state and local government web resources and services.